createdAt,value
2022-10-20T00:03:18.474Z,44.08
2022-10-20T00:08:41.707Z,44.31
2022-10-20T00:14:04.492Z,44.09
2022-10-20T00:19:26.281Z,44.13
2022-10-20T00:24:47.949Z,44.41
2022-10-20T00:30:10.022Z,43.98
2022-10-20T00:35:33.624Z,44.08
2022-10-20T00:40:55.480Z,44.26
2022-10-20T00:46:23.813Z,44.28
2022-10-20T00:51:45.519Z,44.15
2022-10-20T00:57:07.334Z,44.47
2022-10-20T01:02:29.068Z,44.22
2022-10-20T01:07:50.819Z,44.10
2022-10-20T01:13:27.404Z,43.97
2022-10-20T01:19:22.755Z,44.24
2022-10-20T01:25:18.208Z,44.46
2022-10-20T01:30:46.492Z,44.02
2022-10-20T01:36:17.733Z,44.16
2022-10-20T01:42:11.560Z,44.02
2022-10-20T01:47:35.588Z,44.12
2022-10-20T01:52:58.196Z,44.30
2022-10-20T01:58:48.999Z,44.46
2022-10-20T02:04:11.862Z,44.39
2022-10-20T02:09:41.186Z,44.44
2022-10-20T02:15:05.976Z,44.17
2022-10-20T02:20:30.760Z,44.01
2022-10-20T02:25:56.952Z,44.10
2022-10-20T02:31:19.430Z,44.58
2022-10-20T02:36:43.309Z,44.35
2022-10-20T02:42:04.941Z,44.30
2022-10-20T02:47:26.583Z,44.08
2022-10-20T02:52:48.298Z,44.15
2022-10-20T02:58:10.349Z,44.56
2022-10-20T03:03:31.994Z,44.19
2022-10-20T03:08:53.754Z,44.28
2022-10-20T03:14:15.496Z,44.08
2022-10-20T03:19:37.344Z,44.54
2022-10-20T03:24:59.118Z,44.55
2022-10-20T03:30:20.789Z,44.47
2022-10-20T03:35:42.461Z,44.49
2022-10-20T03:41:04.206Z,44.46
2022-10-20T03:46:25.979Z,44.07
2022-10-20T03:51:47.616Z,44.51
2022-10-20T03:57:09.336Z,44.15
2022-10-20T04:02:37.938Z,44.43
2022-10-20T04:07:59.772Z,44.33
2022-10-20T04:13:21.420Z,44.13
2022-10-20T04:18:43.166Z,44.14
2022-10-20T04:24:05.704Z,44.15
2022-10-20T04:29:27.389Z,44.44
2022-10-20T04:34:49.042Z,44.30
2022-10-20T04:40:11.201Z,44.55
2022-10-20T04:45:32.895Z,44.36
2022-10-20T04:51:02.108Z,44.56
2022-10-20T04:56:23.993Z,44.25
2022-10-20T05:01:45.754Z,44.33
2022-10-20T05:07:07.532Z,44.48
2022-10-20T05:12:29.254Z,44.23
2022-10-20T05:17:50.944Z,44.22
2022-10-20T05:23:12.661Z,44.37
2022-10-20T05:28:34.367Z,44.32
2022-10-20T05:33:57.212Z,44.83
2022-10-20T05:39:18.841Z,44.60
2022-10-20T05:44:40.490Z,44.73
2022-10-20T05:50:02.540Z,44.28
2022-10-20T05:55:24.446Z,44.33
2022-10-20T06:00:52.821Z,44.68
2022-10-20T06:06:14.671Z,44.63
2022-10-20T06:11:39.544Z,44.83
2022-10-20T06:17:01.556Z,44.61
2022-10-20T06:22:23.189Z,44.66
2022-10-20T06:27:44.850Z,44.79
2022-10-20T06:33:06.569Z,44.67
2022-10-20T06:38:28.907Z,44.64
2022-10-20T06:43:50.674Z,44.87
2022-10-20T06:49:12.749Z,44.39
2022-10-20T06:54:34.376Z,44.73
2022-10-20T06:59:56.020Z,44.55
2022-10-20T07:05:17.737Z,44.68
2022-10-20T07:10:39.398Z,44.80
2022-10-20T07:16:02.039Z,44.53
2022-10-20T07:21:32.513Z,44.50
2022-10-20T07:26:57.623Z,44.63
2022-10-20T07:32:19.282Z,44.75
2022-10-20T07:37:41.044Z,44.39
2022-10-20T07:43:02.686Z,44.49
2022-10-20T07:48:24.363Z,44.85
2022-10-20T07:53:46.129Z,44.93
2022-10-20T07:59:09.834Z,44.78
2022-10-20T08:04:31.872Z,44.85
2022-10-20T08:09:53.697Z,44.68
2022-10-20T08:15:19.780Z,44.78
2022-10-20T08:20:41.617Z,44.77
2022-10-20T08:26:05.044Z,44.71
2022-10-20T08:31:29.636Z,44.93
2022-10-20T08:36:51.297Z,44.99
2022-10-20T08:42:13.260Z,44.77
2022-10-20T08:47:38.520Z,44.72
2022-10-20T08:53:01.056Z,44.97
2022-10-20T08:58:24.904Z,44.55
2022-10-20T09:03:56.733Z,44.57
2022-10-20T09:09:21.300Z,44.91
2022-10-20T09:14:43.000Z,45.08
2022-10-20T09:20:12.133Z,44.77
2022-10-20T09:25:35.265Z,45.16
2022-10-20T09:30:57.479Z,45.14
2022-10-20T09:36:20.785Z,45.09
2022-10-20T09:41:42.950Z,44.93
2022-10-20T09:47:04.730Z,44.72
2022-10-20T09:52:32.024Z,45.04
2022-10-20T09:57:56.035Z,44.87
2022-10-20T10:03:23.296Z,45.17
2022-10-20T10:08:46.603Z,44.78
2022-10-20T10:14:22.247Z,44.89
2022-10-20T10:19:52.481Z,44.96
2022-10-20T10:25:27.366Z,44.82
2022-10-20T10:30:50.163Z,45.03
2022-10-20T10:36:35.872Z,45.24
2022-10-20T10:42:38.579Z,44.87
2022-10-20T10:48:31.507Z,44.94
2022-10-20T10:54:01.890Z,45.29
2022-10-20T10:59:30.925Z,44.85
2022-10-20T11:04:58.212Z,45.20
2022-10-20T11:10:47.562Z,45.04
2022-10-20T11:16:30.912Z,45.07
2022-10-20T11:21:58.277Z,45.37
2022-10-20T11:27:28.256Z,44.97
2022-10-20T11:33:26.963Z,45.16
2022-10-20T11:38:53.886Z,44.98
2022-10-20T11:44:27.722Z,45.28
2022-10-20T11:49:49.611Z,45.24
2022-10-20T11:55:13.798Z,45.37
2022-10-20T12:00:47.465Z,45.00
2022-10-20T12:06:19.807Z,45.36
2022-10-20T12:12:00.173Z,45.17
2022-10-20T12:17:42.199Z,45.10
2022-10-20T12:23:04.422Z,45.20
2022-10-20T12:28:27.971Z,45.44
2022-10-20T12:33:49.776Z,45.23
2022-10-20T12:39:22.526Z,45.56
2022-10-20T12:44:45.905Z,45.59
2022-10-20T12:50:43.783Z,45.60
2022-10-20T12:56:08.352Z,45.63
2022-10-20T13:01:30.066Z,45.39
2022-10-20T13:06:53.852Z,45.41
2022-10-20T13:12:26.917Z,45.61
2022-10-20T13:17:57.778Z,45.48
2022-10-20T13:23:34.466Z,45.73
2022-10-20T13:28:59.810Z,46.01
2022-10-20T13:34:52.192Z,45.80
2022-10-20T13:40:23.927Z,45.90
2022-10-20T13:46:10.190Z,46.03
2022-10-20T13:51:37.604Z,46.11
2022-10-20T13:57:00.154Z,46.02
2022-10-20T14:02:32.007Z,46.02
2022-10-20T14:07:53.865Z,46.18
2022-10-20T14:13:22.013Z,45.87
2022-10-20T14:18:43.773Z,46.25
2022-10-20T14:24:06.943Z,46.28
2022-10-20T14:29:31.108Z,46.30
2022-10-20T14:35:00.486Z,46.24
2022-10-20T14:40:29.055Z,46.48
2022-10-20T14:45:56.845Z,46.55
2022-10-20T14:51:31.296Z,46.41
2022-10-20T14:56:59.161Z,46.29
2022-10-20T15:02:23.780Z,46.50
2022-10-20T15:07:45.500Z,46.34
2022-10-20T15:13:23.601Z,46.24
2022-10-20T15:18:48.269Z,46.49
2022-10-20T15:24:09.894Z,46.35
2022-10-20T15:29:32.456Z,46.74
2022-10-20T15:34:54.140Z,47.86
2022-10-20T15:40:16.051Z,48.20
2022-10-20T15:45:40.691Z,48.77
2022-10-20T15:51:02.889Z,48.79
2022-10-20T15:56:24.823Z,49.34
2022-10-20T16:01:46.543Z,49.59
2022-10-20T16:07:08.153Z,50.16
2022-10-20T16:12:29.811Z,50.53
2022-10-20T16:17:51.953Z,50.78
2022-10-20T16:23:13.593Z,51.05
2022-10-20T16:28:36.225Z,51.01
2022-10-20T16:34:00.701Z,50.87
2022-10-20T16:39:22.437Z,50.76
2022-10-20T16:44:45.571Z,50.28
2022-10-20T16:50:07.831Z,50.13
2022-10-20T16:55:29.479Z,49.96
2022-10-20T17:01:01.651Z,49.94
2022-10-20T17:06:25.554Z,49.88
2022-10-20T17:11:47.666Z,49.51
2022-10-20T17:17:09.353Z,49.18
2022-10-20T17:22:31.013Z,49.20
2022-10-20T17:27:52.745Z,49.08
2022-10-20T17:33:14.518Z,49.09
2022-10-20T17:38:36.296Z,49.22
2022-10-20T17:44:02.712Z,48.97
2022-10-20T17:49:24.362Z,49.03
2022-10-20T17:54:46.014Z,48.88
2022-10-20T18:00:12.892Z,48.78
2022-10-20T18:05:38.292Z,48.53
2022-10-20T18:11:00.020Z,48.94
2022-10-20T18:16:21.771Z,48.76
2022-10-20T18:21:43.833Z,49.33
2022-10-20T18:27:06.111Z,48.97
2022-10-20T18:32:27.770Z,48.64
2022-10-20T18:37:52.677Z,48.39
2022-10-20T18:43:14.379Z,47.85
2022-10-20T18:48:38.253Z,47.11
2022-10-20T18:54:02.004Z,47.30
2022-10-20T18:59:23.818Z,46.96
2022-10-20T19:04:45.485Z,46.97
2022-10-20T19:10:07.386Z,47.41
2022-10-20T19:15:29.032Z,47.46
2022-10-20T19:21:01.960Z,47.83
2022-10-20T19:26:29.445Z,47.70
2022-10-20T19:31:57.299Z,47.81
2022-10-20T19:37:18.997Z,47.70
2022-10-20T19:42:40.743Z,47.92
2022-10-20T19:48:03.036Z,47.92
2022-10-20T19:53:24.673Z,48.06
2022-10-20T19:58:46.862Z,47.90
2022-10-20T20:04:08.683Z,47.96
2022-10-20T20:09:30.898Z,47.82
2022-10-20T20:14:52.903Z,47.90
2022-10-20T20:20:14.784Z,47.95
2022-10-20T20:25:40.797Z,47.84
2022-10-20T20:31:08.163Z,48.08
2022-10-20T20:36:30.300Z,48.29
2022-10-20T20:41:51.994Z,48.13
2022-10-20T20:47:13.633Z,47.93
2022-10-20T20:52:35.309Z,48.53
2022-10-20T20:57:56.961Z,48.31
2022-10-20T21:03:19.478Z,48.57
2022-10-20T21:08:43.351Z,48.36
2022-10-20T21:14:05.109Z,48.59
2022-10-20T21:19:26.845Z,48.50
2022-10-20T21:24:48.478Z,48.67
2022-10-20T21:30:10.457Z,48.66
2022-10-20T21:35:32.090Z,48.78
2022-10-20T21:40:53.735Z,48.71
2022-10-20T21:46:24.179Z,48.67
2022-10-20T21:51:49.994Z,48.40
2022-10-20T21:57:11.751Z,48.67
2022-10-20T22:02:33.379Z,48.47
2022-10-20T22:07:55.039Z,48.28
2022-10-20T22:13:16.725Z,48.22
2022-10-20T22:18:38.438Z,48.27
2022-10-20T22:24:00.668Z,48.20
2022-10-20T22:29:23.268Z,48.63
2022-10-20T22:34:44.893Z,48.72
2022-10-20T22:40:07.317Z,48.59
2022-10-20T22:45:29.041Z,48.58
2022-10-20T22:50:50.708Z,48.61
2022-10-20T22:56:15.958Z,48.20
2022-10-20T23:01:37.717Z,48.14
2022-10-20T23:12:41.633Z,48.63
2022-10-20T23:18:03.359Z,48.38
2022-10-20T23:23:25.344Z,48.07
2022-10-20T23:28:48.785Z,48.56
2022-10-20T23:34:10.501Z,48.61
2022-10-20T23:39:32.206Z,48.43
2022-10-20T23:44:53.857Z,48.39
2022-10-20T23:50:16.803Z,48.67
2022-10-20T23:55:38.578Z,48.16
